createdAt,value
2023-02-19T00:01:17.157Z,15.90
2023-02-19T00:03:48.209Z,15.60
2023-02-19T00:06:14.743Z,16.38
2023-02-19T00:08:41.308Z,12.00
2023-02-19T00:11:11.675Z,19.50
2023-02-19T00:13:40.414Z,18.58
2023-02-19T00:16:21.377Z,17.25
2023-02-19T00:18:48.175Z,14.23
2023-02-19T00:21:15.483Z,16.15
2023-02-19T00:26:18.558Z,17.92
2023-02-19T00:28:46.438Z,28.90
2023-02-19T00:31:18.624Z,18.65
2023-02-19T00:33:46.942Z,26.65
2023-02-19T00:36:14.253Z,29.48
2023-02-19T00:41:21.647Z,24.75
2023-02-19T00:43:57.309Z,24.02
2023-02-19T00:46:25.187Z,24.70
2023-02-19T00:48:55.331Z,25.50
2023-02-19T00:51:23.849Z,26.98
2023-02-19T00:53:51.005Z,27.00
2023-02-19T00:56:18.262Z,26.95
2023-02-19T00:58:44.987Z,30.23
2023-02-19T01:01:12.309Z,17.27
2023-02-19T01:06:07.555Z,26.17
2023-02-19T01:08:34.531Z,22.95
2023-02-19T01:11:02.295Z,17.10
2023-02-19T01:13:29.101Z,20.05
2023-02-19T01:16:05.629Z,61.35
2023-02-19T01:18:32.574Z,40.05
2023-02-19T01:20:59.210Z,22.45
2023-02-19T01:23:26.198Z,18.55
2023-02-19T01:25:52.715Z,18.83
2023-02-19T01:28:19.210Z,13.30
2023-02-19T01:30:45.757Z,16.98
2023-02-19T01:33:12.280Z,16.05
2023-02-19T01:35:39.667Z,15.30
2023-02-19T01:40:35.222Z,18.30
2023-02-19T01:43:03.628Z,18.92
2023-02-19T01:45:32.308Z,18.63
2023-02-19T01:48:26.670Z,15.02
2023-02-19T01:51:09.604Z,17.17
2023-02-19T01:53:47.719Z,18.08
2023-02-19T01:56:16.288Z,17.80
2023-02-19T01:58:43.158Z,17.23
2023-02-19T02:01:10.203Z,22.10
2023-02-19T02:03:40.302Z,18.90
2023-02-19T02:06:20.139Z,16.55
2023-02-19T02:09:06.199Z,17.02
2023-02-19T02:11:32.712Z,16.40
2023-02-19T02:13:59.407Z,17.00
2023-02-19T02:16:44.579Z,12.88
2023-02-19T02:19:29.889Z,19.63
2023-02-19T02:22:02.711Z,17.52
2023-02-19T02:24:44.567Z,17.77
2023-02-19T02:27:33.019Z,17.48
2023-02-19T02:30:08.281Z,19.38
2023-02-19T02:32:42.501Z,17.50
2023-02-19T02:35:13.411Z,17.45
2023-02-19T02:37:43.387Z,16.20
2023-02-19T02:40:12.117Z,15.38
2023-02-19T02:42:40.463Z,18.58
2023-02-19T02:45:38.048Z,17.50
2023-02-19T02:48:27.655Z,15.57
2023-02-19T02:51:13.293Z,17.05
2023-02-19T02:54:20.541Z,18.63
2023-02-19T02:56:48.932Z,19.10
2023-02-19T02:59:19.692Z,17.20
2023-02-19T03:02:12.025Z,20.88
2023-02-19T03:05:06.293Z,20.20
2023-02-19T03:08:00.814Z,14.80
2023-02-19T03:10:41.204Z,15.20
2023-02-19T03:13:32.171Z,23.58
2023-02-19T03:16:29.883Z,26.10
2023-02-19T03:19:17.333Z,26.40
2023-02-19T03:21:47.167Z,26.02
2023-02-19T03:24:34.733Z,26.30
2023-02-19T03:27:04.595Z,24.23
2023-02-19T03:29:35.653Z,25.02
2023-02-19T03:32:08.556Z,20.17
2023-02-19T03:34:39.065Z,15.40
2023-02-19T03:37:58.049Z,14.90
2023-02-19T03:40:29.556Z,13.68
2023-02-19T03:43:27.060Z,15.35
2023-02-19T03:45:57.770Z,20.02
2023-02-19T03:48:34.841Z,19.25
2023-02-19T03:53:48.349Z,15.38
2023-02-19T03:56:18.738Z,14.50
2023-02-19T03:58:55.762Z,14.80
2023-02-19T04:04:03.026Z,15.98
2023-02-19T04:06:32.858Z,18.60
2023-02-19T04:09:02.976Z,16.60
2023-02-19T04:11:32.140Z,16.73
2023-02-19T04:14:06.273Z,18.50
2023-02-19T04:16:35.230Z,20.80
2023-02-19T04:19:11.343Z,22.02
2023-02-19T04:21:41.399Z,23.02
2023-02-19T04:24:14.432Z,20.50
2023-02-19T04:26:42.348Z,16.85
2023-02-19T04:29:08.850Z,20.25
2023-02-19T04:31:36.482Z,25.85
2023-02-19T04:34:04.249Z,26.05
2023-02-19T04:36:34.220Z,30.30
2023-02-19T04:39:00.794Z,29.02
2023-02-19T04:41:27.342Z,26.13
2023-02-19T04:43:53.982Z,25.55
2023-02-19T04:46:20.653Z,27.25
2023-02-19T04:48:47.299Z,23.92
2023-02-19T04:51:13.901Z,21.23
2023-02-19T04:53:40.493Z,17.85
2023-02-19T04:56:12.708Z,23.60
2023-02-19T04:58:40.627Z,24.35
2023-02-19T05:01:08.218Z,25.50
2023-02-19T05:03:35.304Z,33.63
2023-02-19T05:06:11.282Z,28.20
2023-02-19T05:08:38.555Z,24.15
2023-02-19T05:13:33.335Z,24.85
2023-02-19T05:16:02.119Z,22.83
2023-02-19T05:18:30.128Z,30.17
2023-02-19T05:20:58.011Z,53.30
2023-02-19T05:23:25.678Z,60.17
2023-02-19T05:25:52.261Z,32.08
2023-02-19T05:28:19.465Z,25.33
2023-02-19T05:33:19.530Z,21.55
2023-02-19T05:35:48.865Z,24.10
2023-02-19T05:38:16.676Z,29.90
2023-02-19T05:40:43.996Z,25.50
2023-02-19T05:45:37.950Z,62.13
2023-02-19T05:50:39.415Z,27.42
2023-02-19T05:53:06.515Z,70.32
2023-02-19T05:55:36.325Z,68.13
2023-02-19T05:58:03.352Z,86.70
2023-02-19T06:00:30.695Z,116.88
2023-02-19T06:05:23.930Z,97.93
2023-02-19T06:07:50.647Z,102.20
2023-02-19T06:10:18.160Z,94.40
2023-02-19T06:12:44.780Z,91.25
2023-02-19T06:15:11.364Z,95.20
2023-02-19T06:17:37.895Z,97.35
2023-02-19T06:20:04.632Z,112.80
2023-02-19T06:22:31.149Z,100.88
2023-02-19T06:24:58.144Z,79.15
2023-02-19T06:27:24.699Z,72.35
2023-02-19T06:29:51.446Z,61.63
2023-02-19T06:49:16.570Z,110.55
2023-02-19T06:51:43.266Z,79.90
2023-02-19T06:54:09.875Z,53.25
2023-02-19T06:56:39.590Z,43.60
2023-02-19T06:59:13.052Z,51.55
2023-02-19T07:01:40.567Z,53.28
2023-02-19T07:04:08.024Z,45.28
2023-02-19T07:06:35.461Z,49.28
2023-02-19T07:11:31.842Z,47.50
2023-02-19T07:14:00.125Z,41.13
2023-02-19T07:16:27.879Z,48.42
2023-02-19T07:18:58.044Z,39.42
2023-02-19T07:21:24.773Z,37.78
2023-02-19T07:23:51.313Z,38.80
2023-02-19T07:26:19.396Z,37.63
2023-02-19T07:28:48.304Z,36.35
2023-02-19T07:31:16.748Z,36.35
2023-02-19T07:33:44.580Z,31.17
2023-02-19T07:36:11.974Z,52.40
2023-02-19T07:41:05.989Z,35.17
2023-02-19T07:43:37.603Z,35.28
2023-02-19T07:46:05.979Z,36.35
2023-02-19T07:48:34.162Z,39.03
2023-02-19T07:51:01.500Z,40.33
2023-02-19T07:53:29.057Z,40.63
2023-02-19T07:56:04.058Z,48.25
2023-02-19T07:58:31.168Z,34.47
2023-02-19T08:00:58.438Z,36.63
2023-02-19T08:03:24.993Z,45.55
2023-02-19T08:05:53.813Z,29.20
2023-02-19T08:08:20.582Z,55.05
2023-02-19T08:11:05.791Z,76.85
2023-02-19T08:13:33.342Z,28.38
2023-02-19T08:16:15.677Z,49.70
2023-02-19T08:18:44.612Z,24.52
2023-02-19T08:23:38.332Z,33.58
2023-02-19T08:26:05.750Z,25.30
2023-02-19T08:31:04.413Z,25.13
2023-02-19T08:33:31.123Z,27.05
2023-02-19T08:36:04.667Z,24.63
2023-02-19T08:38:34.837Z,22.25
2023-02-19T08:41:10.443Z,33.72
2023-02-19T08:43:37.984Z,28.50
2023-02-19T08:48:31.553Z,25.63
2023-02-19T08:51:00.482Z,25.00
2023-02-19T08:53:27.397Z,32.80
2023-02-19T08:55:54.621Z,22.60
2023-02-19T08:58:21.464Z,34.50
2023-02-19T09:00:48.138Z,35.08
2023-02-19T09:03:14.737Z,25.95
2023-02-19T09:05:42.126Z,28.92
2023-02-19T09:08:09.240Z,24.50
2023-02-19T09:10:35.806Z,24.40
2023-02-19T09:13:02.673Z,24.77
2023-02-19T09:15:30.175Z,19.92
2023-02-19T09:17:57.299Z,16.60
2023-02-19T09:20:24.482Z,16.77
2023-02-19T09:22:56.464Z,15.00
2023-02-19T09:25:23.139Z,27.10
2023-02-19T09:27:49.666Z,17.65
2023-02-19T09:30:16.276Z,16.38
2023-02-19T09:32:42.805Z,19.63
2023-02-19T09:35:09.342Z,18.92
2023-02-19T09:37:35.928Z,16.17
2023-02-19T09:40:02.497Z,21.48
2023-02-19T09:42:31.388Z,15.52
2023-02-19T09:45:01.603Z,18.80
2023-02-19T09:47:35.043Z,25.85
2023-02-19T09:50:16.553Z,18.35
2023-02-19T09:52:56.143Z,17.58
2023-02-19T09:55:37.095Z,15.75
2023-02-19T09:58:16.950Z,16.65
2023-02-19T10:00:48.052Z,20.85
2023-02-19T10:03:34.560Z,15.00
2023-02-19T10:06:05.336Z,18.58
2023-02-19T10:08:34.908Z,13.70
2023-02-19T10:11:04.718Z,11.10
2023-02-19T10:13:39.853Z,9.55
2023-02-19T10:16:10.036Z,13.00
2023-02-19T10:18:43.452Z,36.17
2023-02-19T10:21:16.095Z,14.65
2023-02-19T10:23:44.225Z,15.35
2023-02-19T10:26:10.876Z,18.27
2023-02-19T10:28:38.078Z,35.10
2023-02-19T10:31:15.369Z,15.75
2023-02-19T10:34:02.103Z,15.82
2023-02-19T10:36:36.311Z,13.35
2023-02-19T10:39:22.766Z,30.73
2023-02-19T10:41:54.627Z,17.33
2023-02-19T10:44:27.478Z,20.52
2023-02-19T10:46:57.152Z,34.45
2023-02-19T10:49:28.500Z,12.40
2023-02-19T10:51:56.564Z,10.55
2023-02-19T10:54:30.271Z,11.93
2023-02-19T10:57:33.225Z,13.20
2023-02-19T11:00:18.816Z,10.98
2023-02-19T11:02:45.864Z,11.60
2023-02-19T11:05:14.494Z,23.88
2023-02-19T11:07:47.237Z,25.98
2023-02-19T11:10:42.523Z,23.42
2023-02-19T11:13:22.265Z,24.02
2023-02-19T11:15:54.069Z,16.33
2023-02-19T11:18:32.338Z,13.25
2023-02-19T11:21:02.978Z,15.75
2023-02-19T11:23:32.397Z,7.88
2023-02-19T11:26:03.464Z,25.48
2023-02-19T11:28:40.224Z,8.48
2023-02-19T11:31:24.632Z,13.57
2023-02-19T11:34:02.846Z,8.88
2023-02-19T11:36:34.813Z,9.52
2023-02-19T11:39:10.230Z,8.85
2023-02-19T11:41:58.022Z,7.10
2023-02-19T11:44:47.802Z,9.10
2023-02-19T11:47:58.266Z,8.75
2023-02-19T11:50:38.096Z,9.05
2023-02-19T11:53:16.636Z,9.00
2023-02-19T11:55:50.033Z,10.35
2023-02-19T11:58:22.229Z,7.28
2023-02-19T12:01:11.906Z,18.00
2023-02-19T12:03:57.511Z,9.10
2023-02-19T12:06:45.391Z,14.20
2023-02-19T12:09:23.632Z,8.43
2023-02-19T12:12:17.711Z,8.18
2023-02-19T12:14:50.281Z,10.25
2023-02-19T12:17:32.245Z,8.07
2023-02-19T12:20:07.770Z,8.68
2023-02-19T12:22:44.830Z,9.73
2023-02-19T12:25:23.846Z,86.88
2023-02-19T12:28:10.633Z,6.35
2023-02-19T12:30:52.091Z,7.95
2023-02-19T12:33:43.531Z,8.10
2023-02-19T12:36:13.234Z,7.45
2023-02-19T12:38:54.304Z,5.45
2023-02-19T12:41:36.568Z,6.90
2023-02-19T12:44:44.011Z,6.60
2023-02-19T12:47:19.599Z,6.20
2023-02-19T12:49:59.227Z,5.82
2023-02-19T12:52:31.909Z,7.70
2023-02-19T12:55:07.339Z,6.93
2023-02-19T12:57:38.756Z,5.28
2023-02-19T13:00:17.496Z,6.90
2023-02-19T13:03:23.615Z,7.40
2023-02-19T13:05:58.662Z,6.07
2023-02-19T13:08:35.608Z,7.38
2023-02-19T13:11:22.283Z,6.63
2023-02-19T13:13:51.703Z,5.63
2023-02-19T13:16:21.009Z,7.88
2023-02-19T13:18:58.238Z,7.07
2023-02-19T13:21:53.494Z,19.27
2023-02-19T13:24:36.901Z,5.68
2023-02-19T13:27:21.897Z,7.95
2023-02-19T13:29:52.932Z,6.95
2023-02-19T13:32:37.849Z,6.30
2023-02-19T13:35:07.482Z,6.35
2023-02-19T13:37:35.509Z,79.32
2023-02-19T13:40:19.617Z,5.97
2023-02-19T13:42:55.188Z,6.32
2023-02-19T13:45:26.181Z,5.43
2023-02-19T13:47:57.002Z,6.13
2023-02-19T13:50:34.657Z,7.55
2023-02-19T13:53:22.263Z,7.38
2023-02-19T13:55:52.551Z,5.43
2023-02-19T13:58:34.533Z,6.63
2023-02-19T14:01:02.299Z,24.15
2023-02-19T14:03:39.448Z,6.57
2023-02-19T14:08:51.409Z,6.50
2023-02-19T14:11:38.281Z,12.88
2023-02-19T14:14:23.970Z,12.07
2023-02-19T14:16:55.721Z,8.98
2023-02-19T14:19:46.933Z,10.07
2023-02-19T14:22:47.687Z,7.03
2023-02-19T14:25:38.461Z,9.98
2023-02-19T14:28:17.404Z,10.43
2023-02-19T14:31:16.427Z,16.35
2023-02-19T14:33:48.560Z,17.58
2023-02-19T14:36:18.039Z,17.73
2023-02-19T14:38:56.754Z,23.85
2023-02-19T14:41:24.732Z,45.78
2023-02-19T14:43:53.947Z,44.20
2023-02-19T14:46:30.746Z,22.13
2023-02-19T14:49:07.357Z,15.93
2023-02-19T14:51:39.880Z,16.15
2023-02-19T14:54:20.884Z,10.70
2023-02-19T14:56:51.912Z,11.13
2023-02-19T14:59:36.548Z,10.75
2023-02-19T15:02:13.987Z,16.42
2023-02-19T15:04:40.649Z,11.88
2023-02-19T15:07:10.328Z,11.43
2023-02-19T15:09:41.691Z,13.45
2023-02-19T15:12:14.229Z,11.02
2023-02-19T15:14:41.129Z,12.00
2023-02-19T15:17:07.886Z,16.13
2023-02-19T15:19:37.443Z,12.23
2023-02-19T15:22:04.224Z,14.15
2023-02-19T15:24:30.879Z,15.00
2023-02-19T15:27:03.412Z,13.90
2023-02-19T15:29:30.174Z,15.77
2023-02-19T15:31:59.399Z,16.30
2023-02-19T15:34:31.480Z,13.27
2023-02-19T15:36:59.776Z,13.82
2023-02-19T15:39:41.265Z,19.20
2023-02-19T15:42:14.987Z,12.27
2023-02-19T15:44:48.508Z,13.10
2023-02-19T15:47:34.868Z,13.75
2023-02-19T15:50:12.618Z,12.52
2023-02-19T15:52:49.788Z,13.13
2023-02-19T15:58:31.696Z,12.43
2023-02-19T16:01:02.368Z,14.00
2023-02-19T16:03:30.482Z,14.85
2023-02-19T16:06:27.120Z,11.75
2023-02-19T16:09:02.222Z,11.13
2023-02-19T16:11:56.667Z,10.32
2023-02-19T16:14:33.595Z,12.07
2023-02-19T16:17:10.546Z,13.05
2023-02-19T16:19:43.620Z,11.40
2023-02-19T16:22:17.576Z,10.50
2023-02-19T16:24:53.872Z,10.88
2023-02-19T16:27:32.588Z,11.00
2023-02-19T16:30:03.934Z,12.48
2023-02-19T16:32:30.496Z,23.27
2023-02-19T16:34:57.104Z,23.17
2023-02-19T16:37:44.179Z,29.10
2023-02-19T16:40:16.417Z,21.60
2023-02-19T16:42:49.127Z,18.45
2023-02-19T16:45:16.580Z,24.60
2023-02-19T16:50:18.509Z,24.85
2023-02-19T16:52:56.244Z,26.83
2023-02-19T16:55:23.052Z,30.75
2023-02-19T16:57:50.165Z,34.53
2023-02-19T17:00:29.025Z,27.13
2023-02-19T17:02:59.576Z,28.17
2023-02-19T17:05:29.043Z,19.75
2023-02-19T17:07:55.596Z,47.05
2023-02-19T17:10:26.043Z,52.37
2023-02-19T17:12:54.588Z,19.02
2023-02-19T17:15:22.333Z,25.38
2023-02-19T17:17:49.387Z,20.88
2023-02-19T17:20:15.820Z,21.42
2023-02-19T17:22:42.672Z,26.30
2023-02-19T17:25:09.223Z,20.88
2023-02-19T17:27:36.062Z,25.97
2023-02-19T17:30:02.970Z,28.30
2023-02-19T17:32:29.599Z,27.75
2023-02-19T17:34:56.228Z,33.15
2023-02-19T17:37:22.759Z,42.10
2023-02-19T17:39:49.464Z,37.57
2023-02-19T17:42:16.023Z,44.40
2023-02-19T17:44:42.925Z,38.75
2023-02-19T17:47:09.440Z,25.80
2023-02-19T17:49:36.373Z,17.43
2023-02-19T17:52:03.048Z,14.98
2023-02-19T17:54:29.674Z,19.48
2023-02-19T17:56:56.201Z,10.93
2023-02-19T17:59:22.826Z,11.17
2023-02-19T18:01:49.346Z,12.52
2023-02-19T18:04:15.863Z,14.73
2023-02-19T18:06:42.948Z,20.70
2023-02-19T18:09:10.775Z,14.25
2023-02-19T18:11:37.540Z,13.57
2023-02-19T18:14:04.112Z,11.57
2023-02-19T18:16:30.622Z,14.10
2023-02-19T18:18:59.856Z,15.23
2023-02-19T18:21:26.446Z,19.02
2023-02-19T18:23:52.957Z,11.77
2023-02-19T18:26:21.131Z,15.27
2023-02-19T18:28:47.698Z,15.10
2023-02-19T18:31:14.568Z,10.63
2023-02-19T18:33:41.395Z,9.52
2023-02-19T18:36:10.920Z,13.07
2023-02-19T18:38:37.429Z,11.70
2023-02-19T18:41:04.153Z,10.73
2023-02-19T18:43:30.716Z,13.18
2023-02-19T18:45:57.332Z,12.73
2023-02-19T18:48:24.017Z,13.15
2023-02-19T18:50:50.575Z,15.48
2023-02-19T18:53:17.148Z,11.63
2023-02-19T18:55:43.814Z,11.87
2023-02-19T18:58:10.310Z,11.07
2023-02-19T19:00:36.922Z,10.57
2023-02-19T19:03:03.836Z,10.88
2023-02-19T19:05:30.533Z,10.98
2023-02-19T19:07:59.446Z,11.55
2023-02-19T19:10:26.978Z,15.20
2023-02-19T19:15:21.742Z,15.93
2023-02-19T19:17:48.613Z,12.48
2023-02-19T19:20:21.319Z,11.60
2023-02-19T19:22:52.234Z,11.23
2023-02-19T19:25:19.782Z,12.95
2023-02-19T19:27:46.689Z,13.23
2023-02-19T19:30:13.673Z,9.80
2023-02-19T19:32:40.246Z,12.80
2023-02-19T19:35:07.116Z,10.43
2023-02-19T19:37:33.675Z,10.50
2023-02-19T19:40:00.396Z,11.80
2023-02-19T19:42:27.237Z,13.88
2023-02-19T19:44:53.843Z,32.55
2023-02-19T19:47:20.740Z,13.60
2023-02-19T19:49:47.478Z,12.32
2023-02-19T19:52:14.913Z,10.35
2023-02-19T19:57:11.486Z,12.10
2023-02-19T19:59:39.546Z,11.35
2023-02-19T20:02:07.247Z,13.63
2023-02-19T20:04:33.924Z,9.88
2023-02-19T20:07:00.538Z,9.95
2023-02-19T20:09:29.032Z,15.67
2023-02-19T20:11:56.649Z,10.65
2023-02-19T20:14:25.253Z,11.88
2023-02-19T20:16:52.900Z,13.20
2023-02-19T20:19:20.447Z,13.68
2023-02-19T20:21:48.332Z,11.70
2023-02-19T20:24:16.650Z,12.48
2023-02-19T20:26:43.877Z,14.25
2023-02-19T20:29:10.568Z,12.10
2023-02-19T20:31:38.167Z,16.58
2023-02-19T20:34:05.071Z,14.23
2023-02-19T20:36:32.787Z,10.75
2023-02-19T20:38:59.467Z,10.32
2023-02-19T20:41:26.320Z,10.60
2023-02-19T20:43:52.873Z,13.88
2023-02-19T20:46:19.637Z,12.00
2023-02-19T20:48:46.390Z,12.05
2023-02-19T20:51:13.044Z,13.93
2023-02-19T20:53:42.303Z,12.95
2023-02-19T20:56:11.432Z,10.95
2023-02-19T20:58:40.758Z,10.77
2023-02-19T21:01:07.379Z,12.70
2023-02-19T21:03:34.089Z,13.68
2023-02-19T21:06:00.655Z,12.15
2023-02-19T21:08:27.272Z,12.25
2023-02-19T21:10:55.108Z,11.70
2023-02-19T21:13:21.978Z,11.73
2023-02-19T21:15:48.578Z,10.15
2023-02-19T21:18:16.447Z,9.17
2023-02-19T21:20:42.954Z,11.48
2023-02-19T21:23:09.575Z,10.97
2023-02-19T21:25:36.071Z,12.82
2023-02-19T21:28:02.658Z,11.10
2023-02-19T21:30:29.314Z,12.05
2023-02-19T21:32:55.987Z,10.25
2023-02-19T21:35:22.554Z,12.05
2023-02-19T21:37:49.185Z,11.37
2023-02-19T21:40:15.982Z,11.55
2023-02-19T21:42:42.548Z,11.82
2023-02-19T21:45:09.267Z,9.30
2023-02-19T21:47:35.846Z,9.98
2023-02-19T21:50:02.463Z,8.98
2023-02-19T21:52:31.180Z,12.25
2023-02-19T21:54:57.973Z,11.82
2023-02-19T21:57:24.548Z,10.00
2023-02-19T21:59:51.114Z,10.60
2023-02-19T22:02:20.144Z,10.63
2023-02-19T22:04:46.943Z,10.38
2023-02-19T22:07:13.492Z,9.05
2023-02-19T22:09:40.492Z,10.63
2023-02-19T22:12:07.142Z,9.90
2023-02-19T22:14:33.753Z,10.55
2023-02-19T22:17:00.320Z,10.63
2023-02-19T22:19:26.869Z,11.77
2023-02-19T22:21:53.430Z,11.60
2023-02-19T22:24:21.741Z,11.00
2023-02-19T22:26:50.700Z,12.30
2023-02-19T22:29:17.913Z,11.57
2023-02-19T22:31:44.637Z,11.57
2023-02-19T22:34:11.291Z,14.13
2023-02-19T22:36:37.876Z,13.33
2023-02-19T22:39:06.478Z,10.50
2023-02-19T22:41:33.285Z,11.93
2023-02-19T22:44:00.207Z,11.60
2023-02-19T22:46:29.956Z,11.18
2023-02-19T22:48:57.312Z,12.93
2023-02-19T22:51:24.606Z,12.30
2023-02-19T22:53:54.055Z,12.27
2023-02-19T22:56:24.658Z,12.90
2023-02-19T22:58:52.142Z,13.60
2023-02-19T23:06:28.089Z,15.23
2023-02-19T23:08:56.759Z,12.50
2023-02-19T23:11:26.035Z,12.07
2023-02-19T23:13:53.393Z,13.02
2023-02-19T23:16:20.507Z,12.90
2023-02-19T23:18:47.164Z,15.60
2023-02-19T23:21:13.851Z,13.23
2023-02-19T23:23:44.866Z,11.68
2023-02-19T23:26:12.848Z,14.65
2023-02-19T23:28:40.646Z,15.63
2023-02-19T23:31:07.490Z,14.80
2023-02-19T23:33:34.522Z,18.00
2023-02-19T23:36:01.042Z,16.20
2023-02-19T23:38:27.712Z,13.87
2023-02-19T23:40:54.235Z,16.83
2023-02-19T23:43:21.213Z,15.97
2023-02-19T23:45:48.254Z,12.98
2023-02-19T23:48:14.846Z,15.68
2023-02-19T23:50:41.417Z,16.23
2023-02-19T23:53:07.994Z,12.95
2023-02-19T23:55:34.568Z,13.60
2023-02-19T23:58:01.103Z,15.03
